Time;durP1;ratioP1;P1;durP2;ratioP2;P2;SDS_P1;SDS_P2;PMS_P1;PMS_P2;Temp;Humidity;BMP_temperature;BMP_pressure;BME280_temperature;BME280_humidity;BME280_pressure;Samples;Min_cycle;Max_cycle;Signal;HPM_P1;HPM_P2
2022/10/05 00:00:20;;;;;;;6.25;5.65;;;;;;;;;;5054134;28;20123;-75
2022/10/05 00:02:46;;;;;;;6.45;5.68;;;;;;;;;;5054087;28;20029;-75
2022/10/05 00:05:27;;;;;;;6.05;5.45;;;;;;;;;;5054138;28;20029;-75
2022/10/05 00:07:54;;;;;;;7.55;5.40;;;;;;;;;;5054060;28;20033;-75
2022/10/05 00:10:20;;;;;;;5.57;5.07;;;;;;;;;;5053875;28;20056;-75
2022/10/05 00:12:47;;;;;;;6.95;5.47;;;;;;;;;;5053767;28;20033;-75
2022/10/05 00:15:14;;;;;;;8.73;5.72;;;;;;;;;;5054095;28;20044;-75
2022/10/05 00:17:41;;;;;;;7.28;5.20;;;;;;;;;;5054060;28;20033;-75
2022/10/05 00:20:28;;;;;;;7.47;5.55;;;;;;;;;;5054003;28;20041;-75
2022/10/05 00:23:00;;;;;;;6.22;5.63;;;;;;;;;;5053760;28;20051;-75
2022/10/05 00:25:26;;;;;;;6.18;5.57;;;;;;;;;;5053526;28;20095;-75
2022/10/05 00:27:54;;;;;;;6.57;5.90;;;;;;;;;;5053755;28;20383;-75
2022/10/05 00:30:21;;;;;;;6.13;5.53;;;;;;;;;;5053751;28;20357;-75
2022/10/05 00:32:47;;;;;;;7.35;5.30;;;;;;;;;;5053721;28;20361;-75
2022/10/05 00:35:14;;;;;;;6.55;5.90;;;;;;;;;;5053795;28;20155;-75
2022/10/05 00:37:40;;;;;;;7.05;5.72;;;;;;;;;;5053637;28;20032;-75
2022/10/05 00:40:25;;;;;;;8.35;5.47;;;;;;;;;;5053340;28;20102;-75
2022/10/05 00:43:00;;;;;;;7.88;6.20;;;;;;;;;;5053706;28;20040;-75
2022/10/05 00:45:32;;;;;;;6.53;5.65;;;;;;;;;;5053494;28;20092;-75
2022/10/05 00:48:17;;;;;;;7.68;5.93;;;;;;;;;;5053643;28;20068;-75
2022/10/05 00:50:43;;;;;;;;;;;;;;;;;;5053708;28;20502;-75
2022/10/05 00:53:31;;;;;;;6.57;5.85;;;;;;;;;;5035492;28;19999;-75
2022/10/05 00:55:57;;;;;;;6.28;5.68;;;;;;;;;;5053350;28;20041;-75
2022/10/05 00:58:42;;;;;;;6.72;5.78;;;;;;;;;;5053272;28;20053;-75
2022/10/05 01:01:13;;;;;;;7.22;6.40;;;;;;;;;;5053277;28;20044;-75
2022/10/05 01:03:42;;;;;;;6.75;5.82;;;;;;;;;;5035318;28;20404;-76
2022/10/05 01:06:26;;;;;;;8.20;6.75;;;;;;;;;;5053297;28;20041;-76
2022/10/05 01:09:13;;;;;;;8.32;6.53;;;;;;;;;;5053012;28;20606;-75
2022/10/05 01:11:39;;;;;;;7.13;5.93;;;;;;;;;;5052855;28;20512;-75
2022/10/05 01:14:08;;;;;;;7.53;6.70;;;;;;;;;;5053351;28;20040;-75
2022/10/05 01:16:49;;;;;;;6.95;6.30;;;;;;;;;;5053270;28;20040;-75
2022/10/05 01:19:18;;;;;;;7.15;6.10;;;;;;;;;;5052975;28;20040;-75
2022/10/05 01:21:53;;;;;;;6.95;6.22;;;;;;;;;;5053052;28;20044;-75
2022/10/05 01:24:31;;;;;;;6.90;5.88;;;;;;;;;;5053258;28;20044;-75
2022/10/05 01:27:16;;;;;;;6.95;6.10;;;;;;;;;;5053006;28;20477;-75
2022/10/05 01:30:02;;;;;;;6.95;6.25;;;;;;;;;;5053020;28;20138;-75
2022/10/05 01:32:47;;;;;;;8.60;6.15;;;;;;;;;;5052738;28;20095;-76
2022/10/05 01:35:29;;;;;;;8.45;6.18;;;;;;;;;;5052977;28;20473;-75
2022/10/05 01:38:04;;;;;;;8.48;6.82;;;;;;;;;;5056436;28;20033;-75
2022/10/05 01:40:36;;;;;;;7.70;6.30;;;;;;;;;;5056759;28;20369;-75
2022/10/05 01:43:11;;;;;;;7.88;6.47;;;;;;;;;;5056753;28;20073;-75
2022/10/05 01:45:37;;;;;;;;;;;;;;;;;;5057013;28;20076;-75
2022/10/05 01:48:21;;;;;;;7.25;6.55;;;;;;;;;;5056578;28;19940;-75
2022/10/05 01:50:50;;;;;;;8.73;7.55;;;;;;;;;;5038811;28;20025;-75
2022/10/05 01:53:16;;;;;;;7.47;6.78;;;;;;;;;;5038698;28;20040;-75
2022/10/05 01:55:49;;;;;;;10.52;7.63;;;;;;;;;;5056534;28;20104;-75
2022/10/05 01:58:33;;;;;;;8.05;7.13;;;;;;;;;;5056611;28;20037;-75
2022/10/05 02:01:06;;;;;;;11.02;7.15;;;;;;;;;;5056617;28;20049;-75
2022/10/05 02:03:49;;;;;;;7.50;6.63;;;;;;;;;;5056372;28;20033;-75
2022/10/05 02:06:19;;;;;;;7.78;6.97;;;;;;;;;;5056387;28;20039;-75
2022/10/05 02:08:50;;;;;;;8.15;6.50;;;;;;;;;;5056172;28;20053;-75
2022/10/05 02:11:16;;;;;;;7.63;6.78;;;;;;;;;;5056298;28;20513;-75
2022/10/05 02:13:45;;;;;;;7.00;6.28;;;;;;;;;;5056147;28;20480;-75
2022/10/05 02:16:30;;;;;;;8.90;6.75;;;;;;;;;;5056402;28;20033;-75
2022/10/05 02:18:58;;;;;;;7.57;6.68;;;;;;;;;;5056362;28;20056;-75
2022/10/05 02:21:24;;;;;;;8.52;7.28;;;;;;;;;;5056017;28;20045;-75
2022/10/05 02:23:51;;;;;;;9.05;7.40;;;;;;;;;;5056252;28;20491;-75
2022/10/05 02:26:18;;;;;;;8.77;7.88;;;;;;;;;;5056061;28;20033;-75
2022/10/05 02:28:44;;;;;;;7.40;6.63;;;;;;;;;;5055950;28;20041;-75
2022/10/05 02:31:12;;;;;;;7.60;6.80;;;;;;;;;;5056246;28;20029;-75
2022/10/05 02:33:38;;;;;;;7.50;6.75;;;;;;;;;;5055819;28;20033;-75
2022/10/05 02:36:11;;;;;;;7.97;7.25;;;;;;;;;;5055841;28;20040;-75
2022/10/05 02:38:56;;;;;;;8.35;7.32;;;;;;;;;;5055704;28;20037;-75
2022/10/05 02:41:40;;;;;;;9.15;7.60;;;;;;;;;;5055671;28;20159;-75
2022/10/05 02:44:27;;;;;;;8.95;6.80;;;;;;;;;;5056157;28;20064;-75
2022/10/05 02:46:56;;;;;;;9.18;7.32;;;;;;;;;;5024266;28;20033;-75
2022/10/05 02:49:41;;;;;;;8.07;7.38;;;;;;;;;;5055781;28;20091;-75
2022/10/05 02:52:12;;;;;;;7.20;6.47;;;;;;;;;;5055664;28;20111;-75
2022/10/05 02:54:49;;;;;;;8.88;7.05;;;;;;;;;;5055404;28;20033;-75
2022/10/05 02:57:34;;;;;;;10.45;7.25;;;;;;;;;;5037936;28;20380;-75
2022/10/05 03:00:00;;;;;;;7.57;6.85;;;;;;;;;;5055438;28;20025;-75
2022/10/05 03:02:31;;;;;;;8.15;6.65;;;;;;;;;;5055320;28;20123;-76
2022/10/05 03:05:15;;;;;;;7.70;6.90;;;;;;;;;;5055343;28;20099;-76
2022/10/05 03:07:46;;;;;;;8.20;6.93;;;;;;;;;;5055146;28;20033;-75
2022/10/05 03:10:18;;;;;;;7.30;6.60;;;;;;;;;;5055237;28;20045;-75
2022/10/05 03:12:44;;;;;;;8.02;7.07;;;;;;;;;;5055154;28;20033;-75
2022/10/05 03:15:26;;;;;;;7.82;6.85;;;;;;;;;;5055181;28;20060;-75
2022/10/05 03:18:10;;;;;;;8.27;6.30;;;;;;;;;;5054952;28;20033;-75
2022/10/05 03:20:36;;;;;;;;;;;;;;;;;;5037160;28;20044;-75
2022/10/05 03:23:04;;;;;;;9.40;7.45;;;;;;;;;;5037031;28;20377;-75
2022/10/05 03:25:39;;;;;;;8.23;7.32;;;;;;;;;;5054704;28;20044;-75
2022/10/05 03:28:24;;;;;;;8.18;7.18;;;;;;;;;;5055430;28;20075;-75
2022/10/05 03:30:50;;;;;;;;;;;;;;;;;;5055186;28;20408;-75
2022/10/05 03:33:22;;;;;;;9.75;7.70;;;;;;;;;;5054677;28;19951;-75
2022/10/05 03:35:52;;;;;;;8.35;7.55;;;;;;;;;;5054716;28;20412;-75
2022/10/05 03:38:41;;;;;;;8.68;7.78;;;;;;;;;;5054523;28;20044;-75
2022/10/05 03:41:26;;;;;;;9.52;7.40;;;;;;;;;;5044324;28;20059;-75
2022/10/05 03:44:04;;;;;;;8.93;7.35;;;;;;;;;;5054744;28;20040;-75
2022/10/05 03:46:42;;;;;;;9.73;7.13;;;;;;;;;;5054390;28;20049;-75
2022/10/05 03:49:20;;;;;;;9.10;7.13;;;;;;;;;;5053899;28;20122;-75
2022/10/05 03:51:48;;;;;;;9.15;7.22;;;;;;;;;;5054124;28;20045;-75
2022/10/05 03:54:33;;;;;;;8.23;6.95;;;;;;;;;;5054198;28;20072;-76
2022/10/05 03:56:59;;;;;;;;;;;;;;;;;;5054623;28;20045;-75
2022/10/05 03:59:25;;;;;;;7.93;7.13;;;;;;;;;;5053349;28;20026;-75
2022/10/05 04:01:54;;;;;;;8.52;7.72;;;;;;;;;;5036014;28;20048;-75
2022/10/05 04:04:25;;;;;;;8.27;6.55;;;;;;;;;;5036126;28;20069;-75
2022/10/05 04:06:53;;;;;;;9.40;7.63;;;;;;;;;;5054237;28;20033;-75
2022/10/05 04:09:24;;;;;;;8.60;7.20;;;;;;;;;;5053374;28;20573;-77
2022/10/05 04:11:54;;;;;;;8.35;7.07;;;;;;;;;;5053990;28;20044;-75
2022/10/05 04:14:31;;;;;;;9.00;8.10;;;;;;;;;;5053566;28;20090;-75
2022/10/05 04:16:59;;;;;;;7.10;6.38;;;;;;;;;;5053487;28;20047;-75
2022/10/05 04:19:39;;;;;;;9.38;7.07;;;;;;;;;;5053302;28;20041;-75
2022/10/05 04:22:17;;;;;;;8.05;7.05;;;;;;;;;;5035888;28;20131;-76
2022/10/05 04:24:53;;;;;;;7.95;7.13;;;;;;;;;;5053384;28;20064;-76
2022/10/05 04:27:21;;;;;;;8.30;7.03;;;;;;;;;;5053618;28;20492;-76
2022/10/05 04:30:11;;;;;;;8.07;7.28;;;;;;;;;;5053862;28;20067;-76
2022/10/05 04:32:38;;;;;;;8.48;6.72;;;;;;;;;;5053273;28;20032;-76
2022/10/05 04:35:11;;;;;;;8.10;7.18;;;;;;;;;;5053477;28;20040;-78
2022/10/05 04:37:46;;;;;;;10.75;8.02;;;;;;;;;;5035244;28;20064;-76
2022/10/05 04:40:30;;;;;;;10.93;8.13;;;;;;;;;;5052909;28;20484;-76
2022/10/05 04:43:14;;;;;;;21.08;15.93;;;;;;;;;;5053512;28;20028;-77
2022/10/05 04:45:44;;;;;;;8.40;7.37;;;;;;;;;;5053433;28;20036;-77
2022/10/05 04:48:33;;;;;;;12.90;9.13;;;;;;;;;;5053010;28;20420;-77
2022/10/05 04:51:17;;;;;;;10.10;7.55;;;;;;;;;;5047040;28;20049;-77
2022/10/05 04:53:53;;;;;;;10.40;8.07;;;;;;;;;;5053416;28;20064;-77
2022/10/05 04:56:24;;;;;;;8.95;7.72;;;;;;;;;;5033734;28;20041;-77
2022/10/05 04:58:52;;;;;;;9.10;7.68;;;;;;;;;;5033494;28;20042;-77
2022/10/05 05:01:28;;;;;;;10.85;7.75;;;;;;;;;;5033310;28;20381;-77
2022/10/05 05:04:12;;;;;;;9.80;7.45;;;;;;;;;;5033331;28;20034;-76
2022/10/05 05:06:38;;;;;;;12.93;8.20;;;;;;;;;;5033426;28;20041;-77
2022/10/05 05:09:23;;;;;;;8.88;7.20;;;;;;;;;;5033121;28;20053;-77
2022/10/05 05:12:03;;;;;;;12.13;7.10;;;;;;;;;;5034909;28;20451;-77
2022/10/05 05:14:36;;;;;;;9.07;8.05;;;;;;;;;;5037416;28;20040;-78
2022/10/05 05:17:11;;;;;;;11.13;8.25;;;;;;;;;;5019688;28;20044;-74
2022/10/05 05:19:37;;;;;;;15.98;11.60;;;;;;;;;;5037097;28;20052;-77
2022/10/05 05:22:06;;;;;;;18.95;12.13;;;;;;;;;;5036969;28;20096;-74
2022/10/05 05:24:45;;;;;;;15.27;11.40;;;;;;;;;;5055926;28;20044;-72
2022/10/05 05:27:30;;;;;;;14.38;10.95;;;;;;;;;;5056803;28;20045;-74
2022/10/05 05:30:14;;;;;;;14.00;11.25;;;;;;;;;;5036875;28;20464;-75
2022/10/05 05:32:40;;;;;;;15.50;11.65;;;;;;;;;;5046832;28;20446;-73
2022/10/05 05:35:06;;;;;;;14.85;10.45;;;;;;;;;;5055318;28;20104;-76
2022/10/05 05:37:51;;;;;;;13.70;9.82;;;;;;;;;;5054118;28;20586;-77
2022/10/05 05:40:17;;;;;;;17.27;13.70;;;;;;;;;;5054857;28;20041;-74
2022/10/05 05:42:46;;;;;;;15.48;12.98;;;;;;;;;;5035617;28;20084;-73
2022/10/05 05:45:18;;;;;;;18.58;14.55;;;;;;;;;;5055187;28;20437;-76
2022/10/05 05:47:50;;;;;;;18.02;11.93;;;;;;;;;;5052304;28;20126;-77
2022/10/05 05:50:19;;;;;;;65.28;23.15;;;;;;;;;;5053091;28;20495;-76
2022/10/05 05:52:49;;;;;;;46.53;20.10;;;;;;;;;;5054283;28;20037;-78
2022/10/05 05:55:45;;;;;;;25.67;14.10;;;;;;;;;;5036080;28;20414;-76
2022/10/05 05:58:14;;;;;;;22.88;12.82;;;;;;;;;;5037326;28;20049;-77
2022/10/05 06:00:57;;;;;;;16.85;11.88;;;;;;;;;;5050394;28;20077;-76
2022/10/05 06:03:26;;;;;;;19.42;13.55;;;;;;;;;;5052313;28;20037;-77
2022/10/05 06:05:54;;;;;;;17.52;14.57;;;;;;;;;;5054212;28;20530;-78
2022/10/05 06:08:39;;;;;;;27.95;14.73;;;;;;;;;;5053724;28;20457;-79
2022/10/05 06:11:05;;;;;;;;;;;;;;;;;;5053918;28;20037;-80
2022/10/05 06:13:37;;;;;;;62.50;28.63;;;;;;;;;;5053625;28;20275;-79
2022/10/05 06:16:22;;;;;;;70.95;33.30;;;;;;;;;;5054054;28;20047;-79
2022/10/05 06:18:54;;;;;;;111.97;41.67;;;;;;;;;;5053527;28;20380;-77
2022/10/05 06:21:32;;;;;;;162.88;52.17;;;;;;;;;;5040822;28;20041;-78
2022/10/05 06:24:03;;;;;;;88.93;34.92;;;;;;;;;;5052278;28;20499;-77
2022/10/05 06:26:33;;;;;;;12.88;9.30;;;;;;;;;;5052196;28;20041;-77
2022/10/05 06:29:18;;;;;;;8.40;6.85;;;;;;;;;;5053069;28;20040;-78
2022/10/05 06:32:04;;;;;;;13.88;9.38;;;;;;;;;;5052317;28;20025;-78
2022/10/05 06:34:42;;;;;;;13.80;9.23;;;;;;;;;;5052940;28;20086;-77
2022/10/05 06:37:16;;;;;;;11.98;9.05;;;;;;;;;;5052543;28;20112;-77
2022/10/05 06:39:45;;;;;;;6.72;6.05;;;;;;;;;;5048518;28;20049;-77
2022/10/05 06:42:25;;;;;;;11.35;6.60;;;;;;;;;;5053561;28;20517;-73
2022/10/05 06:44:54;;;;;;;13.15;7.93;;;;;;;;;;5053391;28;20044;-78
2022/10/05 06:47:38;;;;;;;13.05;7.97;;;;;;;;;;5053176;28;20396;-78
2022/10/05 06:50:04;;;;;;;;;;;;;;;;;;5041338;28;20040;-77
2022/10/05 06:52:31;;;;;;;10.50;8.15;;;;;;;;;;5052635;28;19958;-77
2022/10/05 06:55:17;;;;;;;10.57;8.20;;;;;;;;;;5052947;28;20045;-78
2022/10/05 06:58:02;;;;;;;11.88;8.52;;;;;;;;;;5051145;28;20044;-78
2022/10/05 07:00:50;;;;;;;16.30;12.68;;;;;;;;;;5052022;28;20045;-81
2022/10/05 07:03:38;;;;;;;107.35;65.80;;;;;;;;;;5027123;28;20037;-77
2022/10/05 07:06:04;;;;;;;61.88;43.58;;;;;;;;;;5040991;28;20044;-78
2022/10/05 07:08:40;;;;;;;30.92;18.55;;;;;;;;;;5031856;28;20060;-78
2022/10/05 07:11:25;;;;;;;28.17;15.10;;;;;;;;;;5048247;28;20040;-77
2022/10/05 07:14:11;;;;;;;22.90;13.00;;;;;;;;;;5052596;28;20094;-76
2022/10/05 07:16:37;;;;;;;44.60;21.08;;;;;;;;;;5044416;28;20401;-77
2022/10/05 07:19:19;;;;;;;44.28;20.02;;;;;;;;;;5033580;28;20036;-77
2022/10/05 07:21:50;;;;;;;21.38;13.15;;;;;;;;;;5043998;28;20400;-78
2022/10/05 07:24:34;;;;;;;27.98;15.32;;;;;;;;;;5046497;28;20045;-76
2022/10/05 07:27:03;;;;;;;14.95;10.20;;;;;;;;;;5043666;28;20039;-77
2022/10/05 07:29:38;;;;;;;15.80;10.35;;;;;;;;;;5040959;28;20041;-76
2022/10/05 07:32:14;;;;;;;11.57;8.18;;;;;;;;;;5015010;28;20492;-77
2022/10/05 07:34:40;;;;;;;16.02;9.63;;;;;;;;;;5043304;28;20076;-77
2022/10/05 07:40:01;;;;;;;;;;;;;;;;;;5053752;28;20087;-77
2022/10/05 07:42:30;;;;;;;9.73;7.22;;;;;;;;;;5050823;28;19913;-76
2022/10/05 07:45:23;;;;;;;8.23;7.35;;;;;;;;;;5048329;28;20033;-77
2022/10/05 07:47:57;;;;;;;25.58;12.80;;;;;;;;;;5045368;28;20045;-77
2022/10/05 07:50:31;;;;;;;13.00;8.82;;;;;;;;;;5042682;28;20037;-78
2022/10/05 07:53:00;;;;;;;10.32;7.50;;;;;;;;;;5033040;28;20042;-73
2022/10/05 07:55:32;;;;;;;10.20;7.28;;;;;;;;;;5023090;28;20037;-79
2022/10/05 07:58:17;;;;;;;8.38;6.78;;;;;;;;;;5033088;28;20404;-81
2022/10/05 08:00:52;;;;;;;20.17;10.15;;;;;;;;;;5028003;28;20049;-79
2022/10/05 08:03:37;;;;;;;12.30;9.38;;;;;;;;;;5050549;28;20076;-82
2022/10/05 08:06:04;;;;;;;14.35;8.70;;;;;;;;;;5046476;28;20043;-81
2022/10/05 08:08:49;;;;;;;23.13;9.82;;;;;;;;;;5050027;28;20045;-80
2022/10/05 08:11:34;;;;;;;9.00;6.47;;;;;;;;;;5045319;28;20119;-81
2022/10/05 08:14:05;;;;;;;28.02;11.32;;;;;;;;;;5050547;28;20052;-81
2022/10/05 08:16:34;;;;;;;5.95;5.22;;;;;;;;;;5046456;28;20108;-80
2022/10/05 08:19:16;;;;;;;6.03;4.60;;;;;;;;;;5030110;28;20220;-81
2022/10/05 08:21:51;;;;;;;11.15;6.65;;;;;;;;;;5048129;28;20144;-81
2022/10/05 08:24:36;;;;;;;10.20;6.60;;;;;;;;;;5042710;28;20080;-79
2022/10/05 08:27:02;;;;;;;;;;;;;;;;;;5051522;28;20033;-82
2022/10/05 08:29:34;;;;;;;8.90;4.90;;;;;;;;;;5042452;28;20356;-81
2022/10/05 08:32:05;;;;;;;9.48;5.45;;;;;;;;;;5031391;28;20036;-78
2022/10/05 08:34:37;;;;;;;36.17;19.00;;;;;;;;;;5036159;28;20503;-78
2022/10/05 08:37:09;;;;;;;7.95;3.55;;;;;;;;;;5047646;28;20041;-79
2022/10/05 08:39:39;;;;;;;5.18;3.55;;;;;;;;;;5040119;28;20040;-80
2022/10/05 08:42:08;;;;;;;10.02;4.20;;;;;;;;;;5042474;28;20103;-78
2022/10/05 08:44:43;;;;;;;7.93;4.70;;;;;;;;;;5040164;28;20119;-79
2022/10/05 08:47:28;;;;;;;7.75;4.82;;;;;;;;;;5030964;28;20045;-76
2022/10/05 08:50:13;;;;;;;8.00;4.50;;;;;;;;;;5030624;28;20064;-78
2022/10/05 08:52:39;;;;;;;;;;;;;;;;;;5031757;28;20033;-78
2022/10/05 08:55:10;;;;;;;15.55;7.05;;;;;;;;;;5030697;28;19905;-78
2022/10/05 08:57:58;;;;;;;4.13;3.00;;;;;;;;;;5032485;28;20049;-78
2022/10/05 09:00:31;;;;;;;21.13;15.40;;;;;;;;;;5033747;28;20526;-79
2022/10/05 09:03:15;;;;;;;3.97;3.13;;;;;;;;;;5044361;28;20041;-80
2022/10/05 09:05:44;;;;;;;5.32;3.80;;;;;;;;;;5032102;28;20112;-83
2022/10/05 09:08:29;;;;;;;3.88;2.80;;;;;;;;;;5050460;28;20365;-80
2022/10/05 09:11:15;;;;;;;2.85;2.53;;;;;;;;;;5050140;28;20129;-77
2022/10/05 09:13:47;;;;;;;15.95;14.40;;;;;;;;;;5044276;28;20030;-77
2022/10/05 09:16:26;;;;;;;4.72;3.78;;;;;;;;;;5033184;28;20091;-81
2022/10/05 09:19:10;;;;;;;8.90;4.88;;;;;;;;;;5030522;28;20037;-77
2022/10/05 09:21:36;;;;;;;;;;;;;;;;;;5031367;28;20127;-79
2022/10/05 09:24:12;;;;;;;8.73;4.32;;;;;;;;;;5030184;28;20003;-79
2022/10/05 09:26:56;;;;;;;7.10;4.18;;;;;;;;;;5031598;28;20034;-80
2022/10/05 09:29:34;;;;;;;13.10;6.85;;;;;;;;;;5048231;28;20075;-79
2022/10/05 09:32:05;;;;;;;12.40;9.05;;;;;;;;;;5046822;28;20028;-78
2022/10/05 09:34:50;;;;;;;6.28;3.80;;;;;;;;;;5043430;28;20484;-78
2022/10/05 09:37:16;;;;;;;;;;;;;;;;;;5036972;28;20087;-77
2022/10/05 09:39:48;;;;;;;2.72;2.10;;;;;;;;;;5049942;28;19908;-76
2022/10/05 09:42:27;;;;;;;4.40;2.70;;;;;;;;;;5046017;28;20033;-77
2022/10/05 09:45:16;;;;;;;4.93;3.75;;;;;;;;;;5034941;28;20041;-76
2022/10/05 09:47:44;;;;;;;5.28;3.53;;;;;;;;;;5048970;28;20489;-77
2022/10/05 09:50:10;;;;;;;8.55;3.85;;;;;;;;;;5047501;28;20033;-77
2022/10/05 09:52:54;;;;;;;8.27;5.97;;;;;;;;;;5050088;28;20045;-77
2022/10/05 09:55:20;;;;;;;;;;;;;;;;;;5040411;28;20037;-77
2022/10/05 09:57:55;;;;;;;2.72;2.25;;;;;;;;;;5047548;28;20710;-77
2022/10/05 10:00:33;;;;;;;3.13;2.42;;;;;;;;;;5044371;28;20048;-78
2022/10/05 10:03:11;;;;;;;4.00;2.30;;;;;;;;;;5034712;28;20039;-78
2022/10/05 10:05:40;;;;;;;4.63;2.08;;;;;;;;;;5050974;28;20033;-77
2022/10/05 10:08:06;;;;;;;5.93;3.33;;;;;;;;;;5053735;28;20041;-77
2022/10/05 10:10:51;;;;;;;2.97;2.00;;;;;;;;;;5053610;28;20087;-77
2022/10/05 10:13:18;;;;;;;4.03;2.15;;;;;;;;;;5053684;28;20037;-78
2022/10/05 10:16:03;;;;;;;2.65;1.98;;;;;;;;;;5038611;28;20111;-78
2022/10/05 10:18:29;;;;;;;3.58;2.55;;;;;;;;;;5038159;28;20604;-77
2022/10/05 10:21:14;;;;;;;2.15;1.95;;;;;;;;;;5044249;28;20041;-79
2022/10/05 10:23:43;;;;;;;3.45;2.10;;;;;;;;;;5053564;28;20056;-78
2022/10/05 10:26:29;;;;;;;7.95;5.00;;;;;;;;;;5047257;28;20108;-77
2022/10/05 10:29:13;;;;;;;16.05;4.07;;;;;;;;;;5033459;28;20064;-77
2022/10/05 10:31:55;;;;;;;4.13;2.50;;;;;;;;;;5033561;28;20037;-76
2022/10/05 10:34:40;;;;;;;4.20;2.63;;;;;;;;;;5040600;28;20033;-76
2022/10/05 10:37:25;;;;;;;2.45;2.10;;;;;;;;;;5053423;28;20048;-77
2022/10/05 10:40:03;;;;;;;3.95;2.35;;;;;;;;;;5052885;28;20033;-77
2022/10/05 10:42:38;;;;;;;2.90;1.80;;;;;;;;;;5052893;28;20064;-76
2022/10/05 10:45:23;;;;;;;5.57;4.38;;;;;;;;;;5052775;28;20033;-77
2022/10/05 10:47:49;;;;;;;;;;;;;;;;;;5053209;28;20045;-77
2022/10/05 10:50:14;;;;;;;;;;;;;;;;;;5053529;28;19926;-77
2022/10/05 10:52:40;;;;;;;;;;;;;;;;;;5052992;28;20096;-77
2022/10/05 10:55:06;;;;;;;;;;;;;;;;;;5053110;28;20330;-76
2022/10/05 10:57:32;;;;;;;;;;;;;;;;;;5053429;28;20368;-77
2022/10/05 10:59:58;;;;;;;;;;;;;;;;;;5053256;28;19917;-77
2022/10/05 11:02:26;;;;;;;;;;;;;;;;;;5053510;28;19915;-77
2022/10/05 11:04:52;;;;;;;;;;;;;;;;;;5052175;28;19901;-78
2022/10/05 11:07:18;;;;;;;;;;;;;;;;;;5053038;28;20276;-79
2022/10/05 11:09:44;;;;;;;;;;;;;;;;;;5047328;28;19927;-79
2022/10/05 11:12:10;;;;;;;;;;;;;;;;;;5052616;28;19951;-77
2022/10/05 11:14:36;;;;;;;;;;;;;;;;;;5052407;28;19905;-78
2022/10/05 11:17:02;;;;;;;;;;;;;;;;;;5051346;28;19919;-77
2022/10/05 11:19:29;;;;;;;;;;;;;;;;;;5052313;28;20422;-79
2022/10/05 11:21:55;;;;;;;;;;;;;;;;;;5034483;28;19988;-80
2022/10/05 11:24:21;;;;;;;;;;;;;;;;;;5048343;28;20379;-79
2022/10/05 11:26:47;;;;;;;;;;;;;;;;;;5041260;28;19916;-79
2022/10/05 11:29:16;;;;;;;;;;;;;;;;;;5023115;28;20004;-81
2022/10/05 11:31:42;;;;;;;;;;;;;;;;;;5023327;28;19966;-78
2022/10/05 11:34:08;;;;;;;;;;;;;;;;;;5048290;28;19942;-79
2022/10/05 11:36:34;;;;;;;;;;;;;;;;;;5048430;28;19916;-79
2022/10/05 11:39:01;;;;;;;;;;;;;;;;;;5044883;28;19909;-78
2022/10/05 11:41:26;;;;;;;;;;;;;;;;;;5048502;28;19923;-74
2022/10/05 11:43:52;;;;;;;;;;;;;;;;;;5048526;28;19913;-78
2022/10/05 11:46:19;;;;;;;;;;;;;;;;;;5050523;28;19905;-78
2022/10/05 11:48:45;;;;;;;;;;;;;;;;;;5047707;28;19915;-78
2022/10/05 11:51:13;;;;;;;;;;;;;;;;;;5049660;28;19913;-78
2022/10/05 11:53:39;;;;;;;;;;;;;;;;;;5045667;28;19904;-79
2022/10/05 11:56:05;;;;;;;;;;;;;;;;;;5034112;28;19915;-78
2022/10/05 11:58:31;;;;;;;;;;;;;;;;;;5034213;28;19952;-77
2022/10/05 12:00:57;;;;;;;;;;;;;;;;;;5033843;28;19983;-78
2022/10/05 12:03:22;;;;;;;;;;;;;;;;;;5033653;28;19912;-77
2022/10/05 12:05:48;;;;;;;;;;;;;;;;;;5039653;28;19909;-78
2022/10/05 12:08:14;;;;;;;;;;;;;;;;;;5051368;28;20003;-77
2022/10/05 12:10:41;;;;;;;;;;;;;;;;;;5041402;28;19912;-78
2022/10/05 12:13:07;;;;;;;;;;;;;;;;;;5048452;28;19959;-79
2022/10/05 12:15:33;;;;;;;;;;;;;;;;;;5052747;28;20010;-79
2022/10/05 12:17:59;;;;;;;;;;;;;;;;;;5052981;28;19963;-79
2022/10/05 12:20:25;;;;;;;;;;;;;;;;;;5049011;28;20027;-79
2022/10/05 12:22:51;;;;;;;;;;;;;;;;;;5047475;28;20430;-79
2022/10/05 12:25:17;;;;;;;;;;;;;;;;;;5052776;28;19970;-78
2022/10/05 12:27:45;;;;;;;;;;;;;;;;;;5051037;28;19927;-77
2022/10/05 12:30:10;;;;;;;;;;;;;;;;;;5042580;28;19916;-77
2022/10/05 12:32:36;;;;;;;;;;;;;;;;;;5043073;28;19908;-79
2022/10/05 12:35:03;;;;;;;;;;;;;;;;;;5037065;28;19911;-76
2022/10/05 12:37:29;;;;;;;;;;;;;;;;;;5041943;28;19915;-77
2022/10/05 12:39:55;;;;;;;;;;;;;;;;;;5044710;28;19909;-78
2022/10/05 12:42:21;;;;;;;;;;;;;;;;;;5052887;28;19930;-77
2022/10/05 12:44:48;;;;;;;;;;;;;;;;;;5053228;28;21204;-76
2022/10/05 12:47:13;;;;;;;;;;;;;;;;;;5048547;28;19909;-76
2022/10/05 12:49:39;;;;;;;;;;;;;;;;;;5050472;28;19920;-78
2022/10/05 12:52:05;;;;;;;;;;;;;;;;;;5043151;28;19931;-78
2022/10/05 12:54:31;;;;;;;;;;;;;;;;;;5041064;28;20335;-79
2022/10/05 12:56:58;;;;;;;;;;;;;;;;;;5041341;28;19995;-80
2022/10/05 12:59:23;;;;;;;;;;;;;;;;;;5046641;28;19904;-79
2022/10/05 13:01:49;;;;;;;;;;;;;;;;;;5030462;28;20397;-80
2022/10/05 13:04:16;;;;;;;;;;;;;;;;;;5042601;28;19904;-79
2022/10/05 13:06:42;;;;;;;;;;;;;;;;;;5051796;28;20432;-78
2022/10/05 13:09:09;;;;;;;;;;;;;;;;;;5048213;28;20267;-78
2022/10/05 13:11:34;;;;;;;;;;;;;;;;;;5049087;28;19955;-78
2022/10/05 13:14:01;;;;;;;;;;;;;;;;;;5034572;28;19915;-78
2022/10/05 13:16:27;;;;;;;;;;;;;;;;;;5053118;28;19904;-77
2022/10/05 13:18:53;;;;;;;;;;;;;;;;;;5046341;28;19909;-76
2022/10/05 13:21:19;;;;;;;;;;;;;;;;;;5052797;28;19917;-80
2022/10/05 13:23:45;;;;;;;;;;;;;;;;;;5044005;28;19935;-78
2022/10/05 13:26:11;;;;;;;;;;;;;;;;;;5051884;28;19999;-79
2022/10/05 13:28:37;;;;;;;;;;;;;;;;;;5051502;28;19983;-77
2022/10/05 13:31:02;;;;;;;;;;;;;;;;;;5039989;28;19912;-77
2022/10/05 13:33:28;;;;;;;;;;;;;;;;;;5054945;28;20271;-78
2022/10/05 13:35:54;;;;;;;;;;;;;;;;;;5056077;28;20268;-78
2022/10/05 13:38:20;;;;;;;;;;;;;;;;;;5056461;28;20342;-78
2022/10/05 13:40:46;;;;;;;;;;;;;;;;;;5050198;28;19920;-77
2022/10/05 13:43:13;;;;;;;;;;;;;;;;;;5047508;28;19904;-77
2022/10/05 13:45:39;;;;;;;;;;;;;;;;;;5055802;28;19948;-76
2022/10/05 13:48:05;;;;;;;;;;;;;;;;;;5055977;28;20033;-76
2022/10/05 13:50:31;;;;;;;;;;;;;;;;;;5054454;28;19912;-76
2022/10/05 13:52:57;;;;;;;;;;;;;;;;;;5049701;28;19913;-77
2022/10/05 13:55:23;;;;;;;;;;;;;;;;;;5045381;28;20009;-77
2022/10/05 13:57:50;;;;;;;;;;;;;;;;;;5037704;28;19904;-78
2022/10/05 14:00:16;;;;;;;;;;;;;;;;;;5056699;28;19912;-77
2022/10/05 14:02:42;;;;;;;;;;;;;;;;;;5056411;28;19951;-76
2022/10/05 14:05:08;;;;;;;;;;;;;;;;;;5056082;28;20343;-76
2022/10/05 14:07:34;;;;;;;;;;;;;;;;;;5056440;28;20271;-77
2022/10/05 14:10:00;;;;;;;;;;;;;;;;;;5054150;28;19982;-77
2022/10/05 14:12:26;;;;;;;;;;;;;;;;;;5056568;28;19904;-77
2022/10/05 14:14:52;;;;;;;;;;;;;;;;;;5053116;28;19913;-77
2022/10/05 14:17:18;;;;;;;;;;;;;;;;;;5056219;28;19905;-79
2022/10/05 14:19:44;;;;;;;;;;;;;;;;;;5055924;28;20000;-78
2022/10/05 14:22:10;;;;;;;;;;;;;;;;;;5056389;28;19909;-77
2022/10/05 14:24:36;;;;;;;;;;;;;;;;;;5055971;28;19912;-77
2022/10/05 14:27:02;;;;;;;;;;;;;;;;;;5055891;28;19905;-76
2022/10/05 14:29:28;;;;;;;;;;;;;;;;;;5054987;28;20003;-78
2022/10/05 14:31:54;;;;;;;;;;;;;;;;;;5055372;28;19912;-76
2022/10/05 14:34:20;;;;;;;;;;;;;;;;;;5056099;28;19916;-79
2022/10/05 14:36:46;;;;;;;;;;;;;;;;;;5055849;28;19905;-77
2022/10/05 14:39:12;;;;;;;;;;;;;;;;;;5055898;28;19912;-78
2022/10/05 14:41:38;;;;;;;;;;;;;;;;;;5055556;28;19920;-77
2022/10/05 14:44:04;;;;;;;;;;;;;;;;;;5055074;28;19905;-77
2022/10/05 14:46:31;;;;;;;;;;;;;;;;;;5050955;28;19912;-77
2022/10/05 14:48:57;;;;;;;;;;;;;;;;;;5038624;28;19909;-77
2022/10/05 14:51:23;;;;;;;;;;;;;;;;;;5055469;28;19911;-77
2022/10/05 14:53:49;;;;;;;;;;;;;;;;;;5055375;28;19944;-78
2022/10/05 14:56:15;;;;;;;;;;;;;;;;;;5042025;28;19908;-76
2022/10/05 14:58:42;;;;;;;;;;;;;;;;;;5035412;28;19909;-76
2022/10/05 15:01:12;;;;;;;;;;;;;;;;;;5035905;28;19921;-77
2022/10/05 15:03:39;;;;;;;;;;;;;;;;;;5035303;28;20387;-78
2022/10/05 15:06:05;;;;;;;;;;;;;;;;;;5035650;28;20276;-76
2022/10/05 15:08:32;;;;;;;;;;;;;;;;;;5044465;28;19913;-77
2022/10/05 15:10:58;;;;;;;;;;;;;;;;;;5055515;28;19916;-77
2022/10/05 15:13:24;;;;;;;;;;;;;;;;;;5055380;28;19905;-76
2022/10/05 15:15:53;;;;;;;;;;;;;;;;;;5055242;28;20403;-77
2022/10/05 15:18:19;;;;;;;;;;;;;;;;;;5055343;28;19944;-77
2022/10/05 15:20:45;;;;;;;;;;;;;;;;;;5043864;28;19971;-77
2022/10/05 15:23:11;;;;;;;;;;;;;;;;;;5053802;28;20283;-77
2022/10/05 15:25:39;;;;;;;;;;;;;;;;;;5038297;28;20421;-77
2022/10/05 15:28:05;;;;;;;;;;;;;;;;;;5037119;28;20504;-76
2022/10/05 15:30:31;;;;;;;;;;;;;;;;;;5054028;28;20330;-76
2022/10/05 15:32:57;;;;;;;;;;;;;;;;;;5054589;28;19904;-77
2022/10/05 15:35:23;;;;;;;;;;;;;;;;;;5054889;28;19908;-77
2022/10/05 15:37:49;;;;;;;;;;;;;;;;;;5054696;28;19911;-77
2022/10/05 15:40:15;;;;;;;;;;;;;;;;;;5054716;28;20292;-77
2022/10/05 15:42:41;;;;;;;;;;;;;;;;;;5045240;28;20279;-77
2022/10/05 15:45:09;;;;;;;;;;;;;;;;;;5054512;28;19904;-77
2022/10/05 15:47:35;;;;;;;;;;;;;;;;;;5054426;28;19912;-77
2022/10/05 15:50:01;;;;;;;;;;;;;;;;;;5034750;28;19908;-77
2022/10/05 15:52:27;;;;;;;;;;;;;;;;;;5034789;28;19992;-78